Time;durP1;ratioP1;P1;durP2;ratioP2;P2;SDS_P1;SDS_P2;PMS_P1;PMS_P2;Temp;Humidity;BMP_temperature;BMP_pressure;BME280_temperature;BME280_humidity;BME280_pressure;Samples;Min_cycle;Max_cycle;Signal;HPM_P1;HPM_P2
2023/12/22 00:01:24;;;;;;;;;;;;;;;10.56;62.42;99272.47;4951791;28;6970;-77
2023/12/22 00:03:50;;;;;;;;;;;;;;;10.60;62.09;99288.81;4967065;28;7929;-78
2023/12/22 00:06:15;;;;;;;;;;;;;;;10.52;60.30;99314.22;4964124;28;6791;-78
2023/12/22 00:08:41;;;;;;;;;;;;;;;10.26;59.31;99288.63;4961558;28;7007;-78
2023/12/22 00:11:06;;;;;;;;;;;;;;;9.94;60.01;99278.22;4972592;28;6962;-78
2023/12/22 00:13:33;;;;;;;;;;;;;;;9.72;59.91;99274.09;4961585;28;6804;-77
2023/12/22 00:15:59;;;;;;;;;;;;;;;9.56;60.81;99283.81;4969643;28;7008;-77
2023/12/22 00:18:24;;;;;;;;;;;;;;;9.49;60.78;99281.84;4968548;28;6927;-76
2023/12/22 00:20:50;;;;;;;;;;;;;;;9.43;61.47;99284.19;4985819;28;6938;-76
2023/12/22 00:23:15;;;;;;;;;;;;;;;9.40;61.32;99281.53;4946437;28;8184;-77
2023/12/22 00:25:40;;;;;;;;;;;;;;;9.38;61.75;99283.19;4968696;28;6784;-76
2023/12/22 00:28:06;;;;;;;;;;;;;;;9.39;61.56;99269.56;4969913;28;6939;-77
2023/12/22 00:30:31;;;;;;;;;;;;;;;9.40;61.69;99271.31;4969911;28;7865;-77
2023/12/22 00:32:57;;;;;;;;;;;;;;;9.42;61.60;99267.13;4957501;28;7005;-77
2023/12/22 00:35:22;;;;;;;;;;;;;;;9.44;61.00;99273.16;4970557;28;6796;-77
2023/12/22 00:37:48;;;;;;;;;;;;;;;9.48;61.22;99272.44;4954030;28;6804;-77
2023/12/22 00:40:13;;;;;;;;;;;;;;;9.54;62.21;99290.53;4948628;28;7128;-75
2023/12/22 00:42:39;;;;;;;;;;;;;;;9.63;62.30;99315.59;4966426;28;7432;-76
2023/12/22 00:45:05;;;;;;;;;;;;;;;9.75;62.53;99294.66;4953744;28;7059;-76
2023/12/22 00:47:30;;;;;;;;;;;;;;;9.89;62.89;99289.13;4967942;28;6864;-76
2023/12/22 00:49:56;;;;;;;;;;;;;;;9.98;62.37;99287.72;4950600;28;7187;-76
2023/12/22 00:52:21;;;;;;;;;;;;;;;10.10;62.60;99283.84;4964519;28;6811;-76
2023/12/22 00:54:47;;;;;;;;;;;;;;;10.20;62.22;99280.75;4962876;28;7857;-76
2023/12/22 00:57:13;;;;;;;;;;;;;;;10.27;62.41;99299.75;4965046;28;7200;-76
2023/12/22 00:59:42;;;;;;;;;;;;;;;10.34;61.96;99296.56;4967459;28;7339;-76
2023/12/22 01:02:07;;;;;;;;;;;;;;;10.41;61.89;99300.16;4967338;28;7409;-76
2023/12/22 01:04:33;;;;;;;;;;;;;;;10.44;61.63;99305.41;4967430;28;6931;-77
2023/12/22 01:06:58;;;;;;;;;;;;;;;10.48;61.59;99297.03;4963118;28;6779;-76
2023/12/22 01:09:24;;;;;;;;;;;;;;;10.54;61.77;99298.91;4978438;28;6962;-76
2023/12/22 01:11:49;;;;;;;;;;;;;;;10.60;61.89;99282.84;4952193;28;7090;-76
2023/12/22 01:14:15;;;;;;;;;;;;;;;10.66;61.68;99283.00;4984363;28;6956;-76
2023/12/22 01:16:40;;;;;;;;;;;;;;;10.70;61.61;99285.69;4966860;28;6784;-76
2023/12/22 01:19:06;;;;;;;;;;;;;;;10.77;61.39;99296.13;4967115;28;6788;-76
2023/12/22 01:21:31;;;;;;;;;;;;;;;10.81;61.84;99298.84;4969519;28;8043;-75
2023/12/22 01:23:58;;;;;;;;;;;;;;;10.89;61.28;99311.88;4986249;28;6963;-76
2023/12/22 01:26:24;;;;;;;;;;;;;;;10.93;61.77;99306.03;4978121;28;7095;-76
2023/12/22 01:28:50;;;;;;;;;;;;;;;10.97;61.67;99297.59;4970580;28;6792;-76
2023/12/22 01:31:15;;;;;;;;;;;;;;;11.03;61.94;99294.31;4969374;28;7031;-76
2023/12/22 01:33:41;;;;;;;;;;;;;;;11.08;61.54;99309.84;4972335;28;6796;-76
2023/12/22 01:36:06;;;;;;;;;;;;;;;11.12;61.41;99324.50;4980098;28;6800;-76
2023/12/22 01:38:32;;;;;;;;;;;;;;;11.19;61.27;99305.88;4962289;28;7258;-76
2023/12/22 01:40:57;;;;;;;;;;;;;;;11.20;61.14;99309.31;4980814;28;6878;-75
2023/12/22 01:43:23;;;;;;;;;;;;;;;11.14;60.53;99327.09;4983379;28;7066;-76
2023/12/22 01:45:54;;;;;;;;;;;;;;;11.04;60.61;99310.59;4980603;28;7081;-76
2023/12/22 01:48:21;;;;;;;;;;;;;;;10.95;60.52;99322.31;4970570;28;7259;-76
2023/12/22 01:50:46;;;;;;;;;;;;;;;10.90;60.83;99321.28;4973276;28;6811;-75
2023/12/22 01:53:12;;;;;;;;;;;;;;;10.81;60.51;99331.28;4953792;28;7049;-75
2023/12/22 01:55:37;;;;;;;;;;;;;;;10.75;60.68;99342.22;4978148;28;6800;-75
2023/12/22 01:58:04;;;;;;;;;;;;;;;10.69;60.30;99330.09;4975341;28;7258;-76
2023/12/22 02:00:30;;;;;;;;;;;;;;;10.67;60.41;99336.88;4977517;28;7147;-75
2023/12/22 02:02:55;;;;;;;;;;;;;;;10.70;60.41;99344.63;4974125;28;7171;-76
2023/12/22 02:05:21;;;;;;;;;;;;;;;10.73;60.49;99355.84;4979781;28;7038;-75
2023/12/22 02:07:46;;;;;;;;;;;;;;;10.75;60.56;99356.75;4979125;28;6796;-76
2023/12/22 02:10:12;;;;;;;;;;;;;;;10.76;60.63;99356.75;4976258;28;7194;-75
2023/12/22 02:12:37;;;;;;;;;;;;;;;10.74;60.11;99355.84;4972527;28;7113;-76
2023/12/22 02:15:04;;;;;;;;;;;;;;;10.70;60.53;99372.81;4954955;28;7122;-76
2023/12/22 02:17:39;;;;;;;;;;;;;;;10.66;60.16;99383.81;4977876;28;6993;-76
2023/12/22 02:20:07;;;;;;;;;;;;;;;10.63;60.46;99381.16;4957344;28;6994;-76
2023/12/22 02:22:32;;;;;;;;;;;;;;;10.63;60.59;99370.03;4949355;28;7323;-76
2023/12/22 02:24:58;;;;;;;;;;;;;;;10.64;60.60;99367.53;4972263;28;6784;-76
2023/12/22 02:27:38;;;;;;;;;;;;;;;10.67;60.70;99367.63;4975371;28;6780;-76
2023/12/22 02:30:13;;;;;;;;;;;;;;;10.71;60.69;99358.34;4975226;28;7470;-76
2023/12/22 02:32:43;;;;;;;;;;;;;;;10.78;60.91;99352.59;4970770;28;11444;-76
2023/12/22 02:35:19;;;;;;;;;;;;;;;10.87;60.91;99358.81;4977340;28;6811;-76
2023/12/22 02:37:49;;;;;;;;;;;;;;;10.92;60.83;99347.88;4948276;28;6988;-75
2023/12/22 02:40:15;;;;;;;;;;;;;;;10.93;60.31;99335.91;4967641;28;6980;-75
2023/12/22 02:42:41;;;;;;;;;;;;;;;10.93;60.02;99338.47;4970753;28;7335;-76
2023/12/22 02:45:13;;;;;;;;;;;;;;;10.90;60.25;99354.63;4971297;28;6784;-76
2023/12/22 02:47:39;;;;;;;;;;;;;;;10.86;60.01;99357.94;4971718;28;6974;-75
2023/12/22 02:50:06;;;;;;;;;;;;;;;10.86;60.28;99352.81;4958000;28;7150;-76
2023/12/22 02:52:32;;;;;;;;;;;;;;;10.87;60.42;99348.56;4959016;28;6977;-76
2023/12/22 02:54:57;;;;;;;;;;;;;;;10.90;60.21;99346.94;4974619;28;6824;-75
2023/12/22 02:57:23;;;;;;;;;;;;;;;10.93;60.47;99341.91;4968796;28;7329;-76
2023/12/22 02:59:48;;;;;;;;;;;;;;;10.96;60.88;99342.00;4972945;28;6811;-75
2023/12/22 03:02:14;;;;;;;;;;;;;;;11.00;60.76;99342.97;4982346;28;7031;-76
2023/12/22 03:04:40;;;;;;;;;;;;;;;11.04;60.82;99343.91;4963907;28;6856;-77
2023/12/22 03:07:06;;;;;;;;;;;;;;;11.11;60.77;99353.53;4961385;28;6784;-77
2023/12/22 03:09:32;;;;;;;;;;;;;;;11.16;60.14;99363.94;4955574;28;7249;-77
2023/12/22 03:12:01;;;;;;;;;;;;;;;11.21;59.64;99372.63;4963516;28;6979;-77
2023/12/22 03:14:34;;;;;;;;;;;;;;;11.22;59.79;99366.66;4966854;28;8492;-77
2023/12/22 03:17:00;;;;;;;;;;;;;;;11.20;59.31;99376.88;4950509;28;7010;-77
2023/12/22 03:19:25;;;;;;;;;;;;;;;11.17;59.43;99366.53;4965875;28;7372;-78
2023/12/22 03:21:51;;;;;;;;;;;;;;;11.14;59.50;99371.56;4966763;28;6772;-76
2023/12/22 03:24:19;;;;;;;;;;;;;;;11.11;59.39;99362.09;4947230;28;8030;-77
2023/12/22 03:26:45;;;;;;;;;;;;;;;11.09;59.03;99378.25;4988759;28;7001;-78
2023/12/22 03:29:10;;;;;;;;;;;;;;;11.03;58.96;99380.66;4967648;28;7147;-78
2023/12/22 03:31:36;;;;;;;;;;;;;;;10.95;58.64;99393.22;4963319;28;6787;-77
2023/12/22 03:34:01;;;;;;;;;;;;;;;10.85;59.02;99394.66;4973205;28;6776;-76
2023/12/22 03:36:27;;;;;;;;;;;;;;;10.74;58.73;99378.91;4949495;28;6955;-77
2023/12/22 03:38:52;;;;;;;;;;;;;;;10.66;58.80;99378.69;4966665;28;6871;-78
2023/12/22 03:41:18;;;;;;;;;;;;;;;10.61;58.88;99382.78;4960221;28;7305;-77
2023/12/22 03:43:43;;;;;;;;;;;;;;;10.57;59.15;99368.16;4964980;28;8264;-77
2023/12/22 03:46:09;;;;;;;;;;;;;;;10.55;59.36;99372.38;4959832;28;6792;-77
2023/12/22 03:48:34;;;;;;;;;;;;;;;10.54;59.46;99379.16;4965407;28;6796;-77
2023/12/22 03:50:59;;;;;;;;;;;;;;;10.56;59.15;99359.59;4963834;28;6792;-77
2023/12/22 03:53:25;;;;;;;;;;;;;;;10.58;59.53;99362.22;4964031;28;7865;-77
2023/12/22 03:55:51;;;;;;;;;;;;;;;10.62;59.74;99364.06;4983359;28;7309;-78
2023/12/22 03:58:16;;;;;;;;;;;;;;;10.67;59.85;99362.50;4972909;28;6804;-77
2023/12/22 04:00:41;;;;;;;;;;;;;;;10.72;59.98;99372.00;4967408;28;10171;-75
2023/12/22 04:03:07;;;;;;;;;;;;;;;10.76;60.06;99371.28;4951903;28;7034;-77
2023/12/22 04:05:32;;;;;;;;;;;;;;;10.82;60.23;99371.50;4990528;28;7118;-77
2023/12/22 04:07:58;;;;;;;;;;;;;;;10.88;60.14;99365.69;4962026;28;6860;-77
2023/12/22 04:10:23;;;;;;;;;;;;;;;10.92;59.91;99373.50;4979487;28;6776;-77
2023/12/22 04:12:49;;;;;;;;;;;;;;;10.97;59.84;99377.06;4966091;28;7798;-77
2023/12/22 04:15:14;;;;;;;;;;;;;;;10.98;60.00;99368.53;4963252;28;7123;-76
2023/12/22 04:17:40;;;;;;;;;;;;;;;11.02;60.06;99374.63;4968053;28;7299;-77
2023/12/22 04:20:07;;;;;;;;;;;;;;;11.05;60.26;99368.72;4966349;28;7255;-77
2023/12/22 04:22:32;;;;;;;;;;;;;;;11.07;59.81;99359.38;4968251;28;7079;-77
2023/12/22 04:24:58;;;;;;;;;;;;;;;11.10;60.26;99379.97;4966151;28;6868;-77
2023/12/22 04:27:23;;;;;;;;;;;;;;;11.14;60.13;99373.25;4951868;28;7054;-77
2023/12/22 04:29:49;;;;;;;;;;;;;;;11.16;60.46;99374.19;4961890;28;7154;-77
2023/12/22 04:32:14;;;;;;;;;;;;;;;11.18;60.37;99368.25;4962557;28;7071;-77
2023/12/22 04:34:40;;;;;;;;;;;;;;;11.20;60.15;99358.06;4967826;28;6772;-77
2023/12/22 04:37:05;;;;;;;;;;;;;;;11.22;60.21;99357.28;4950346;28;7024;-77
2023/12/22 04:39:31;;;;;;;;;;;;;;;11.25;60.35;99359.91;4965383;28;7952;-77
2023/12/22 04:41:56;;;;;;;;;;;;;;;11.25;59.89;99367.63;4950790;28;6987;-77
2023/12/22 04:44:22;;;;;;;;;;;;;;;11.27;60.38;99365.09;4950698;28;7048;-77
2023/12/22 04:46:47;;;;;;;;;;;;;;;11.30;60.28;99383.13;4950957;28;7064;-77
2023/12/22 04:49:13;;;;;;;;;;;;;;;11.34;60.31;99381.53;4967424;28;7258;-77
2023/12/22 04:51:38;;;;;;;;;;;;;;;11.39;60.39;99379.94;4966803;28;7037;-77
2023/12/22 04:54:03;;;;;;;;;;;;;;;11.45;60.32;99376.72;4965336;28;7209;-77
2023/12/22 04:56:29;;;;;;;;;;;;;;;11.50;60.66;99378.59;4949480;28;6984;-77
2023/12/22 04:58:54;;;;;;;;;;;;;;;11.58;59.99;99386.47;4966066;28;6819;-77
2023/12/22 05:01:20;;;;;;;;;;;;;;;11.64;59.96;99398.59;4964382;28;6868;-77
2023/12/22 05:03:46;;;;;;;;;;;;;;;11.70;59.75;99390.22;4965339;28;7202;-76
2023/12/22 05:06:11;;;;;;;;;;;;;;;11.76;59.25;99400.66;4967768;28;6952;-77
2023/12/22 05:08:37;;;;;;;;;;;;;;;11.81;59.49;99399.06;4964685;28;7293;-75
2023/12/22 05:11:03;;;;;;;;;;;;;;;11.86;59.29;99400.06;4969417;28;7929;-77
2023/12/22 05:13:28;;;;;;;;;;;;;;;11.90;59.07;99394.16;4966593;28;7302;-77
2023/12/22 05:15:54;;;;;;;;;;;;;;;11.94;58.67;99403.72;4948145;28;7127;-77
2023/12/22 05:18:20;;;;;;;;;;;;;;;11.98;58.02;99407.22;4951941;28;6909;-77
2023/12/22 05:20:45;;;;;;;;;;;;;;;12.02;58.28;99410.72;4969380;28;7258;-77
2023/12/22 05:23:11;;;;;;;;;;;;;;;12.04;57.76;99415.13;4961523;28;6950;-77
2023/12/22 05:25:36;;;;;;;;;;;;;;;12.09;58.44;99410.09;4964497;28;6784;-77
2023/12/22 05:28:02;;;;;;;;;;;;;;;12.12;57.50;99417.91;4984463;28;7154;-77
2023/12/22 05:30:28;;;;;;;;;;;;;;;12.17;57.99;99416.31;4970862;28;6814;-80
2023/12/22 05:32:54;;;;;;;;;;;;;;;12.20;57.21;99418.94;4950252;28;7161;-80
2023/12/22 05:35:20;;;;;;;;;;;;;;;12.25;57.35;99423.34;4958073;28;7063;-77
2023/12/22 05:37:46;;;;;;;;;;;;;;;12.24;57.65;99414.75;4961642;28;8302;-78
2023/12/22 05:40:11;;;;;;;;;;;;;;;12.21;57.49;99414.69;4948595;28;7104;-77
2023/12/22 05:42:37;;;;;;;;;;;;;;;12.14;57.36;99415.34;4971443;28;6859;-77
2023/12/22 05:45:03;;;;;;;;;;;;;;;12.07;57.83;99422.91;4962075;28;6799;-77
2023/12/22 05:47:28;;;;;;;;;;;;;;;12.02;57.81;99416.78;4966758;28;6795;-77
2023/12/22 05:49:54;;;;;;;;;;;;;;;11.98;57.83;99421.75;4969154;28;6795;-78
2023/12/22 05:52:19;;;;;;;;;;;;;;;11.94;57.61;99420.81;4986019;28;6961;-79
2023/12/22 05:54:45;;;;;;;;;;;;;;;11.90;57.59;99401.03;4974841;28;8108;-78
2023/12/22 05:57:10;;;;;;;;;;;;;;;11.85;57.82;99410.28;4976543;28;8124;-78
2023/12/22 05:59:36;;;;;;;;;;;;;;;11.79;57.85;99416.13;4971414;28;7021;-77
2023/12/22 06:02:02;;;;;;;;;;;;;;;11.73;58.57;99424.53;4962832;28;7089;-77
2023/12/22 06:04:28;;;;;;;;;;;;;;;11.70;59.09;99415.88;4965395;28;6792;-79
2023/12/22 06:06:53;;;;;;;;;;;;;;;11.66;58.99;99427.75;4958628;28;7511;-78
2023/12/22 06:09:20;;;;;;;;;;;;;;;11.60;58.96;99419.91;4959204;28;6975;-78
2023/12/22 06:11:47;;;;;;;;;;;;;;;11.56;59.51;99420.63;4963527;28;6872;-78
2023/12/22 06:14:12;;;;;;;;;;;;;;;11.51;59.73;99413.69;4964923;28;7244;-78
2023/12/22 06:16:38;;;;;;;;;;;;;;;11.49;59.30;99404.19;4960971;28;7263;-80
2023/12/22 06:19:03;;;;;;;;;;;;;;;11.48;59.33;99416.13;4963195;28;6947;-77
2023/12/22 06:21:29;;;;;;;;;;;;;;;11.46;59.82;99432.34;4964497;28;7130;-75
2023/12/22 06:23:54;;;;;;;;;;;;;;;11.43;59.35;99415.16;4952970;28;7018;-78
2023/12/22 06:26:20;;;;;;;;;;;;;;;11.30;58.61;99425.84;4947633;28;7064;-78
2023/12/22 06:28:45;;;;;;;;;;;;;;;11.08;58.46;99425.22;4968648;28;6788;-77
2023/12/22 06:31:19;;;;;;;;;;;;;;;10.86;58.54;99418.56;4953723;28;6982;-73
2023/12/22 06:33:44;;;;;;;;;;;;;;;10.68;59.48;99425.72;4968674;28;7230;-74
2023/12/22 06:36:23;;;;;;;;;;;;;;;10.56;59.95;99426.19;4964833;28;6783;-74
2023/12/22 06:38:53;;;;;;;;;;;;;;;10.49;60.16;99425.97;4949603;28;7039;-74
2023/12/22 06:41:23;;;;;;;;;;;;;;;10.47;60.35;99430.19;4964836;28;6970;-73
2023/12/22 06:43:48;;;;;;;;;;;;;;;10.49;60.77;99423.41;4963862;28;7007;-74
2023/12/22 06:46:16;;;;;;;;;;;;;;;10.54;61.00;99421.88;4967882;28;6953;-74
2023/12/22 06:48:41;;;;;;;;;;;;;;;10.60;61.17;99413.50;4985932;28;7765;-74
2023/12/22 06:51:07;;;;;;;;;;;;;;;10.66;61.45;99417.13;4941111;28;7038;-74
2023/12/22 06:53:32;;;;;;;;;;;;;;;10.75;61.59;99425.94;4957176;28;6993;-74
2023/12/22 06:55:58;;;;;;;;;;;;;;;10.82;61.41;99417.63;4960748;28;8238;-74
2023/12/22 06:58:25;;;;;;;;;;;;;;;10.89;61.59;99432.34;4966761;28;6784;-74
2023/12/22 07:00:51;;;;;;;;;;;;;;;10.94;61.80;99425.69;4949630;28;7922;-74
2023/12/22 07:03:17;;;;;;;;;;;;;;;11.00;61.37;99434.38;4966252;28;6958;-74
2023/12/22 07:05:43;;;;;;;;;;;;;;;11.06;61.71;99442.28;4976024;28;6849;-74
2023/12/22 07:08:08;;;;;;;;;;;;;;;11.11;62.19;99441.59;4976972;28;8552;-74
2023/12/22 07:10:34;;;;;;;;;;;;;;;11.17;62.36;99443.47;4961699;28;6776;-74
2023/12/22 07:12:59;;;;;;;;;;;;;;;11.23;62.03;99437.63;4967147;28;6780;-75
2023/12/22 07:15:25;;;;;;;;;;;;;;;11.28;62.39;99435.22;4969279;28;6967;-75
2023/12/22 07:17:50;;;;;;;;;;;;;;;11.31;62.07;99441.31;4959940;28;7114;-75
2023/12/22 07:20:16;;;;;;;;;;;;;;;11.35;62.09;99444.84;4960645;28;6783;-74
2023/12/22 07:22:44;;;;;;;;;;;;;;;11.39;62.33;99438.97;4964835;28;6982;-74
2023/12/22 07:25:10;;;;;;;;;;;;;;;11.42;61.97;99445.88;4943425;28;7068;-74
2023/12/22 07:27:35;;;;;;;;;;;;;;;11.44;62.11;99433.97;4948510;28;6952;-74
2023/12/22 07:30:00;;;;;;;;;;;;;;;11.47;61.68;99428.94;4965497;28;7333;-74
2023/12/22 07:32:26;;;;;;;;;;;;;;;11.48;62.37;99418.69;4972691;28;6791;-74
2023/12/22 07:34:51;;;;;;;;;;;;;;;11.50;62.07;99423.88;4971266;28;6880;-74
2023/12/22 07:37:17;;;;;;;;;;;;;;;11.53;61.99;99432.53;4971756;28;7595;-74
2023/12/22 07:39:45;;;;;;;;;;;;;;;11.54;62.11;99433.44;4968513;28;7719;-74
2023/12/22 07:42:10;;;;;;;;;;;;;;;11.56;62.02;99428.31;4965796;28;6992;-77
2023/12/22 07:44:36;;;;;;;;;;;;;;;11.57;61.86;99414.66;4973086;28;6815;-77
2023/12/22 07:47:01;;;;;;;;;;;;;;;11.59;62.30;99423.25;4969494;28;7154;-76
2023/12/22 07:49:27;;;;;;;;;;;;;;;11.61;61.88;99431.91;4969762;28;7017;-76
2023/12/22 07:51:53;;;;;;;;;;;;;;;11.62;62.12;99437.06;4974434;28;7156;-78
2023/12/22 07:54:19;;;;;;;;;;;;;;;11.64;62.44;99443.13;4974212;28;6872;-77
2023/12/22 07:56:44;;;;;;;;;;;;;;;11.65;62.16;99439.72;4964438;28;7060;-77
2023/12/22 07:59:10;;;;;;;;;;;;;;;11.67;62.49;99460.28;4975268;28;7144;-76
2023/12/22 08:01:35;;;;;;;;;;;;;;;11.69;62.40;99455.22;4968434;28;6779;-76
2023/12/22 08:04:01;;;;;;;;;;;;;;;11.70;62.19;99450.13;4968041;28;6808;-76
2023/12/22 08:06:26;;;;;;;;;;;;;;;11.73;62.50;99451.88;4991454;28;6970;-77
2023/12/22 08:08:52;;;;;;;;;;;;;;;11.74;61.86;99436.53;4967214;28;6860;-76
2023/12/22 08:11:19;;;;;;;;;;;;;;;11.76;62.19;99442.56;4971966;28;7008;-77
2023/12/22 08:13:45;;;;;;;;;;;;;;;11.79;61.81;99434.09;4974728;28;6917;-77
2023/12/22 08:16:10;;;;;;;;;;;;;;;11.79;62.35;99429.84;4989553;28;7011;-77
2023/12/22 08:18:35;;;;;;;;;;;;;;;11.82;62.35;99423.91;4968451;28;6998;-77
2023/12/22 08:21:01;;;;;;;;;;;;;;;11.82;62.22;99423.91;4952660;28;6962;-78
2023/12/22 08:23:26;;;;;;;;;;;;;;;11.83;61.98;99420.53;4965739;28;7040;-77
2023/12/22 08:25:52;;;;;;;;;;;;;;;11.83;62.17;99429.91;4971423;28;6808;-76
2023/12/22 08:28:17;;;;;;;;;;;;;;;11.84;61.65;99421.38;4973785;28;6864;-78
2023/12/22 08:30:43;;;;;;;;;;;;;;;11.84;62.28;99429.97;4973759;28;7113;-76
2023/12/22 08:33:09;;;;;;;;;;;;;;;11.85;62.57;99436.84;4965815;28;6940;-77
2023/12/22 08:35:34;;;;;;;;;;;;;;;11.87;62.54;99439.44;4969569;28;6943;-76
2023/12/22 08:38:00;;;;;;;;;;;;;;;11.89;62.01;99436.09;4972402;28;6843;-77
2023/12/22 08:40:26;;;;;;;;;;;;;;;11.91;62.15;99436.13;4970264;28;6803;-76
2023/12/22 08:42:56;;;;;;;;;;;;;;;11.92;62.00;99438.72;4961362;28;6792;-76
2023/12/22 08:45:22;;;;;;;;;;;;;;;11.95;62.19;99438.84;4981340;28;7065;-77
2023/12/22 08:47:47;;;;;;;;;;;;;;;11.97;61.70;99433.72;4966402;28;6807;-77
2023/12/22 08:50:13;;;;;;;;;;;;;;;12.02;62.82;99431.28;4942095;28;6956;-77
2023/12/22 08:52:38;;;;;;;;;;;;;;;12.05;62.41;99423.69;4947784;28;7227;-74
2023/12/22 08:55:05;;;;;;;;;;;;;;;12.09;62.40;99412.66;4968135;28;7120;-75
2023/12/22 08:57:31;;;;;;;;;;;;;;;12.14;62.49;99425.63;4986640;28;6986;-75
2023/12/22 08:59:57;;;;;;;;;;;;;;;12.17;62.35;99416.31;4967372;28;7618;-75
2023/12/22 09:02:22;;;;;;;;;;;;;;;12.23;62.16;99405.31;4962557;28;7874;-75
2023/12/22 09:04:48;;;;;;;;;;;;;;;12.28;62.61;99402.84;4966428;28;7010;-75
2023/12/22 09:07:13;;;;;;;;;;;;;;;12.33;62.07;99404.72;4952933;28;7931;-75
2023/12/22 09:09:40;;;;;;;;;;;;;;;12.36;61.98;99393.66;4983918;28;6938;-74
2023/12/22 09:12:05;;;;;;;;;;;;;;;12.40;61.71;99392.88;4969055;28;6915;-75
2023/12/22 09:14:31;;;;;;;;;;;;;;;12.42;61.70;99386.09;4967209;28;6968;-75
2023/12/22 09:16:56;;;;;;;;;;;;;;;12.46;61.78;99392.19;4959113;28;7929;-75
2023/12/22 09:19:22;;;;;;;;;;;;;;;12.50;62.36;99383.69;4970545;28;6949;-75
2023/12/22 09:21:47;;;;;;;;;;;;;;;12.53;62.23;99394.03;4970117;28;7043;-75
2023/12/22 09:24:13;;;;;;;;;;;;;;;12.56;61.57;99401.84;4963354;28;7047;-75
2023/12/22 09:26:39;;;;;;;;;;;;;;;12.58;62.11;99389.00;4984236;28;8287;-75
2023/12/22 09:29:04;;;;;;;;;;;;;;;12.57;62.05;99398.44;4967619;28;6982;-75
2023/12/22 09:31:30;;;;;;;;;;;;;;;12.57;62.20;99383.03;4965935;28;7194;-75
2023/12/22 09:33:57;;;;;;;;;;;;;;;12.57;62.56;99395.88;4963234;28;6935;-75
2023/12/22 09:36:22;;;;;;;;;;;;;;;12.56;61.43;99373.56;4987883;28;6807;-75
2023/12/22 09:38:47;;;;;;;;;;;;;;;12.56;62.23;99390.69;4959373;28;7237;-75
2023/12/22 09:41:13;;;;;;;;;;;;;;;12.53;62.40;99376.06;4967530;28;6852;-75
2023/12/22 09:43:39;;;;;;;;;;;;;;;12.54;62.82;99387.22;4968234;28;7047;-75
2023/12/22 09:46:05;;;;;;;;;;;;;;;12.53;62.14;99383.75;4965549;28;6961;-75
2023/12/22 09:48:31;;;;;;;;;;;;;;;12.53;61.79;99376.06;4956797;28;8603;-75
2023/12/22 09:51:00;;;;;;;;;;;;;;;12.55;61.93;99384.66;4958271;28;7559;-75
2023/12/22 09:53:26;;;;;;;;;;;;;;;12.55;62.73;99371.81;4964420;28;7220;-75
2023/12/22 09:55:53;;;;;;;;;;;;;;;12.54;62.08;99367.50;4964788;28;7162;-74
2023/12/22 09:58:19;;;;;;;;;;;;;;;12.55;62.45;99366.66;4949980;28;6971;-74
2023/12/22 10:00:45;;;;;;;;;;;;;;;12.55;62.58;99364.09;4963563;28;7758;-75
2023/12/22 10:03:12;;;;;;;;;;;;;;;12.54;62.10;99377.78;4963583;28;6939;-76
2023/12/22 10:05:40;;;;;;;;;;;;;;;12.55;62.10;99376.94;4964750;28;7070;-76
2023/12/22 10:08:06;;;;;;;;;;;;;;;12.55;62.12;99369.25;4978380;28;6796;-76
2023/12/22 10:10:32;;;;;;;;;;;;;;;12.56;62.36;99373.56;4967265;28;6788;-77
2023/12/22 10:12:59;;;;;;;;;;;;;;;12.56;62.66;99376.16;4968270;28;6963;-77
2023/12/22 10:15:24;;;;;;;;;;;;;;;12.58;63.11;99374.47;4961770;28;6999;-75
2023/12/22 10:17:51;;;;;;;;;;;;;;;12.58;62.96;99369.34;4947528;28;6965;-75
2023/12/22 10:20:16;;;;;;;;;;;;;;;12.60;62.84;99352.25;4966313;28;7239;-76
2023/12/22 10:22:42;;;;;;;;;;;;;;;12.62;62.38;99355.72;4969358;28;6794;-76
2023/12/22 10:25:08;;;;;;;;;;;;;;;12.66;62.59;99360.94;4948457;28;6976;-75
2023/12/22 10:27:36;;;;;;;;;;;;;;;12.67;63.07;99360.09;4950859;28;7097;-76
2023/12/22 10:30:03;;;;;;;;;;;;;;;12.68;63.62;99357.53;4965635;28;6804;-77
2023/12/22 10:32:28;;;;;;;;;;;;;;;12.71;63.85;99346.47;4970154;28;6785;-76
2023/12/22 10:34:54;;;;;;;;;;;;;;;12.74;63.74;99346.53;4967448;28;7165;-76
2023/12/22 10:37:21;;;;;;;;;;;;;;;12.78;63.64;99348.34;4973362;28;6784;-76
2023/12/22 10:39:48;;;;;;;;;;;;;;;12.82;63.47;99346.72;4966161;28;6997;-76
2023/12/22 10:42:14;;;;;;;;;;;;;;;12.87;63.49;99334.81;4970021;28;6816;-77
2023/12/22 10:44:40;;;;;;;;;;;;;;;12.91;63.95;99329.78;4970391;28;7249;-75
2023/12/22 10:47:06;;;;;;;;;;;;;;;12.98;64.18;99332.47;4969883;28;6923;-76
2023/12/22 10:49:32;;;;;;;;;;;;;;;13.02;63.66;99340.28;4967288;28;6787;-76
2023/12/22 10:51:57;;;;;;;;;;;;;;;13.08;63.83;99334.41;4951316;28;7007;-77
2023/12/22 10:54:23;;;;;;;;;;;;;;;13.17;63.36;99319.16;4962120;28;6937;-79
2023/12/22 10:56:48;;;;;;;;;;;;;;;13.26;63.59;99300.44;4967257;28;6791;-77
2023/12/22 10:59:22;;;;;;;;;;;;;;;13.36;63.57;99311.81;4965823;28;7226;-77
2023/12/22 11:01:48;;;;;;;;;;;;;;;13.46;63.69;99321.47;4972728;28;6804;-78
2023/12/22 11:04:19;;;;;;;;;;;;;;;13.55;63.14;99317.34;4955370;28;6970;-78
2023/12/22 11:06:47;;;;;;;;;;;;;;;13.61;63.45;99299.41;4967718;28;6968;-76
2023/12/22 11:09:16;;;;;;;;;;;;;;;13.65;62.83;99315.78;4952622;28;7124;-76
2023/12/22 11:11:42;;;;;;;;;;;;;;;13.69;63.53;99317.59;4974744;28;6804;-75
2023/12/22 11:14:08;;;;;;;;;;;;;;;13.73;63.01;99329.66;4969896;28;6860;-76
2023/12/22 11:16:35;;;;;;;;;;;;;;;13.74;63.16;99327.13;4970857;28;6841;-76
2023/12/22 11:19:01;;;;;;;;;;;;;;;13.78;62.91;99332.31;4968213;28;6804;-77
2023/12/22 11:21:28;;;;;;;;;;;;;;;13.80;63.22;99330.63;4969654;28;7011;-75
2023/12/22 11:23:54;;;;;;;;;;;;;;;13.83;63.09;99321.25;4970207;28;6910;-75
2023/12/22 11:26:21;;;;;;;;;;;;;;;13.86;63.04;99347.09;4970949;28;6775;-76
2023/12/22 11:28:49;;;;;;;;;;;;;;;13.92;62.97;99361.78;4971076;28;7207;-76
2023/12/22 11:31:15;;;;;;;;;;;;;;;13.95;62.75;99361.81;4969542;28;7210;-76
2023/12/22 11:33:44;;;;;;;;;;;;;;;13.99;62.38;99368.75;4968811;28;6971;-76
2023/12/22 11:36:11;;;;;;;;;;;;;;;14.02;62.72;99373.97;4968615;28;6808;-76
2023/12/22 11:38:37;;;;;;;;;;;;;;;14.06;62.45;99353.41;4974522;28;7182;-76
2023/12/22 11:41:04;;;;;;;;;;;;;;;14.08;62.07;99356.88;4972494;28;6839;-74
2023/12/22 11:43:31;;;;;;;;;;;;;;;14.11;62.57;99346.63;4988727;28;7210;-75
2023/12/22 11:46:03;;;;;;;;;;;;;;;14.14;62.23;99337.22;4969096;28;7487;-75
2023/12/22 11:48:30;;;;;;;;;;;;;;;14.18;62.09;99340.72;4978591;28;7063;-75
2023/12/22 11:50:55;;;;;;;;;;;;;;;14.21;62.01;99335.63;4966435;28;7221;-75
2023/12/22 11:53:23;;;;;;;;;;;;;;;14.23;61.68;99333.06;4983760;28;7040;-75
2023/12/22 11:56:08;;;;;;;;;;;;;;;14.25;61.88;99334.84;4979811;28;7008;-75
2023/12/22 11:58:41;;;;;;;;;;;;;;;14.27;61.66;99343.44;4974244;28;7841;-76
2023/12/22 12:01:13;;;;;;;;;;;;;;;14.28;61.45;99350.34;4969755;28;7291;-75
2023/12/22 12:03:47;;;;;;;;;;;;;;;14.29;62.31;99349.53;4972214;28;6800;-76
2023/12/22 12:06:13;;;;;;;;;;;;;;;14.32;61.61;99348.69;4969200;28;7421;-75
2023/12/22 12:08:38;;;;;;;;;;;;;;;14.34;61.85;99338.41;4972095;28;6971;-77
2023/12/22 12:11:04;;;;;;;;;;;;;;;14.37;61.49;99323.84;4980747;28;7017;-78
2023/12/22 12:13:31;;;;;;;;;;;;;;;14.41;61.74;99330.78;4961182;28;6997;-76
2023/12/22 12:16:00;;;;;;;;;;;;;;;14.41;61.52;99320.47;4960593;28;6956;-77
2023/12/22 12:18:30;;;;;;;;;;;;;;;14.41;61.16;99329.94;4967869;28;6999;-77
2023/12/22 12:20:56;;;;;;;;;;;;;;;14.39;61.21;99329.00;4974265;28;6808;-77
2023/12/22 12:23:27;;;;;;;;;;;;;;;14.36;61.20;99322.13;4970410;28;7525;-76
2023/12/22 12:25:54;;;;;;;;;;;;;;;14.31;60.95;99297.97;4990581;28;7016;-75
2023/12/22 12:28:26;;;;;;;;;;;;;;;14.25;60.60;99303.91;4972800;28;6796;-77
2023/12/22 12:31:05;;;;;;;;;;;;;;;14.22;61.35;99303.00;4991196;28;6974;-76
2023/12/22 12:33:31;;;;;;;;;;;;;;;14.20;61.23;99304.69;4991721;28;6979;-75
2023/12/22 12:35:58;;;;;;;;;;;;;;;14.19;61.46;99300.38;4961573;28;7181;-77
2023/12/22 12:38:53;;;;;;;;;;;;;;;14.16;61.13;99307.22;4979144;28;7004;-76
2023/12/22 12:41:29;;;;;;;;;;;;;;;14.16;61.03;99301.19;4972533;28;7162;-76
2023/12/22 12:43:54;;;;;;;;;;;;;;;14.15;60.90;99308.06;4989555;28;6819;-75
2023/12/22 12:46:20;;;;;;;;;;;;;;;14.16;61.59;99299.50;4969157;28;7277;-76
2023/12/22 12:48:45;;;;;;;;;;;;;;;14.15;60.80;99300.34;4973126;28;6931;-76
2023/12/22 12:51:11;;;;;;;;;;;;;;;14.16;61.12;99299.50;4975157;28;6922;-77
2023/12/22 12:53:37;;;;;;;;;;;;;;;14.15;60.97;99299.44;4964861;28;6975;-76